Weather at Shanghai Pudong International Airport

Public forecast

Using degrees Celsius for public forecast. Weather courtesy of forecast.io.

Current aviation weather report (METAR) for Shanghai Pudong International Airport

2024/04/16 18:00 (retrieved 24 minutes ago)

ZSPD 161800Z 09006MPS 360V110 9999 BKN030 17/13 Q1011 NOSIG

Aviation forecast (TAF) for Shanghai Pudong International Airport

Forecast is more than 12 hours old.

2024/04/14 06:57 Ammendment (retrieved 2 days ago)

TAF AMD TAF AMD ZSPD 140853Z 1406/1506 15004MPS 6000 BKN011 TX25/1506Z TN17/1421Z BECMG 1408/1409 BKN002 TEMPO 1409/1415 0500 TSRA BKN001 FEW030CB BECMG 1415/1416 BKN005 BECMG 1417/1418 33004MPS BKN010